createdAt,value
2019-03-29T00:02:02.440Z,97.20
2019-03-29T00:04:33.753Z,97.10
2019-03-29T00:07:05.132Z,96.90
2019-03-29T00:09:36.443Z,96.70
2019-03-29T00:12:07.731Z,97.00
2019-03-29T00:14:39.953Z,97.10
2019-03-29T00:17:11.157Z,97.20
2019-03-29T00:19:42.440Z,97.00
2019-03-29T00:22:13.834Z,96.90
2019-03-29T00:24:45.036Z,96.90
2019-03-29T00:29:58.733Z,96.90
2019-03-29T00:32:29.987Z,97.20
2019-03-29T00:35:01.283Z,97.00
2019-03-29T00:37:32.581Z,97.10
2019-03-29T00:40:03.844Z,96.80
2019-03-29T00:42:35.349Z,96.80
2019-03-29T00:45:06.794Z,96.30
2019-03-29T00:47:38.164Z,96.80
2019-03-29T00:50:09.479Z,97.20
2019-03-29T00:52:40.897Z,97.70
2019-03-29T00:55:12.161Z,97.80
2019-03-29T00:57:43.452Z,97.40
2019-03-29T01:00:14.734Z,97.20
2019-03-29T01:02:46.081Z,97.20
2019-03-29T01:05:18.471Z,97.20
2019-03-29T01:07:49.891Z,97.10
2019-03-29T01:10:21.204Z,97.20
2019-03-29T01:12:52.475Z,97.20
2019-03-29T01:15:23.672Z,97.40
2019-03-29T01:17:54.962Z,97.40
2019-03-29T01:20:26.339Z,98.10
2019-03-29T01:22:57.984Z,98.10
2019-03-29T01:25:29.392Z,98.00
2019-03-29T01:28:00.665Z,97.80
2019-03-29T01:30:32.058Z,98.20
2019-03-29T01:33:03.224Z,98.50
2019-03-29T01:35:34.456Z,98.10
2019-03-29T01:38:05.672Z,97.90
2019-03-29T01:40:37.025Z,97.70
2019-03-29T01:43:08.347Z,97.80
2019-03-29T01:45:39.521Z,97.90
2019-03-29T01:48:10.819Z,98.00
2019-03-29T01:50:42.047Z,97.70
2019-03-29T01:53:13.392Z,97.70
2019-03-29T01:55:44.873Z,97.80
2019-03-29T01:58:16.148Z,97.80
2019-03-29T02:00:47.451Z,97.90
2019-03-29T02:03:18.727Z,98.10
2019-03-29T02:05:49.906Z,97.90
2019-03-29T02:08:34.844Z,97.80
2019-03-29T02:10:54.360Z,98.10
2019-03-29T02:13:26.119Z,98.10
2019-03-29T02:15:57.730Z,98.20
2019-03-29T02:18:28.970Z,98.30
2019-03-29T02:21:00.343Z,98.30
2019-03-29T02:23:31.621Z,98.20
2019-03-29T02:26:02.843Z,98.10
2019-03-29T02:28:34.122Z,98.00
2019-03-29T02:31:05.350Z,98.00
2019-03-29T02:33:37.632Z,98.00
2019-03-29T02:36:08.949Z,98.00
2019-03-29T02:38:54.069Z,98.10
2019-03-29T02:41:13.196Z,98.00
2019-03-29T02:43:44.543Z,98.20
2019-03-29T02:46:15.816Z,98.10
2019-03-29T02:48:47.188Z,98.10
2019-03-29T02:51:18.437Z,98.20
2019-03-29T02:53:49.728Z,98.20
2019-03-29T02:56:20.958Z,98.40
2019-03-29T02:58:52.239Z,98.40
2019-03-29T03:01:23.474Z,98.70
2019-03-29T03:03:54.863Z,98.50
2019-03-29T03:06:26.222Z,98.70
2019-03-29T03:09:12.101Z,98.90
2019-03-29T03:11:30.556Z,98.90
2019-03-29T03:14:01.851Z,99.20
2019-03-29T03:16:33.160Z,99.30
2019-03-29T03:19:04.571Z,99.30
2019-03-29T03:21:35.882Z,99.60
2019-03-29T03:24:08.069Z,99.10
2019-03-29T03:26:39.358Z,98.80
2019-03-29T03:29:10.544Z,98.50
2019-03-29T03:31:41.768Z,98.60
2019-03-29T03:34:13.044Z,98.30
2019-03-29T03:36:44.255Z,98.20
2019-03-29T03:39:30.835Z,98.10
2019-03-29T03:41:48.564Z,98.20
2019-03-29T03:44:19.904Z,98.10
2019-03-29T03:46:51.257Z,98.10
2019-03-29T03:49:22.474Z,98.10
2019-03-29T03:51:53.708Z,98.10
2019-03-29T03:54:24.971Z,98.00
2019-03-29T03:56:56.379Z,97.90
2019-03-29T03:59:28.320Z,97.90
2019-03-29T04:01:59.592Z,97.80
2019-03-29T04:04:30.873Z,97.70
2019-03-29T04:07:02.063Z,97.80
2019-03-29T04:09:48.573Z,97.80
2019-03-29T04:12:06.405Z,97.70
2019-03-29T04:14:37.961Z,97.60
2019-03-29T04:17:09.294Z,97.60
2019-03-29T04:19:40.607Z,97.50
2019-03-29T04:22:11.896Z,97.50
2019-03-29T04:24:43.293Z,97.50
2019-03-29T04:27:14.512Z,97.40
2019-03-29T04:29:45.894Z,97.60
2019-03-29T04:32:18.413Z,97.50
2019-03-29T04:34:49.680Z,97.60
2019-03-29T04:37:20.935Z,97.60
2019-03-29T04:40:06.293Z,97.70
2019-03-29T04:42:25.261Z,97.60
2019-03-29T04:44:59.690Z,97.60
2019-03-29T04:47:29.390Z,97.70
2019-03-29T04:50:00.794Z,97.60
2019-03-29T04:52:32.164Z,97.60
2019-03-29T04:55:03.384Z,97.60
2019-03-29T04:57:34.827Z,97.60
2019-03-29T05:00:06.278Z,97.70
2019-03-29T05:02:37.633Z,97.60
2019-03-29T05:05:09.165Z,97.50
2019-03-29T05:07:40.460Z,97.60
2019-03-29T05:10:21.276Z,97.70
2019-03-29T05:12:44.998Z,97.70
2019-03-29T05:15:16.259Z,97.80
2019-03-29T05:17:47.590Z,97.70
2019-03-29T05:20:18.805Z,97.70
2019-03-29T05:22:50.155Z,97.80
2019-03-29T05:25:21.406Z,98.00
2019-03-29T05:27:52.544Z,98.20
2019-03-29T05:30:24.077Z,98.00
2019-03-29T05:32:55.374Z,98.40
2019-03-29T05:35:26.784Z,98.40
2019-03-29T05:37:57.963Z,98.10
2019-03-29T05:40:35.185Z,98.10
2019-03-29T05:43:02.494Z,98.00
2019-03-29T05:45:33.903Z,98.00
2019-03-29T05:48:05.181Z,97.90
2019-03-29T05:50:36.904Z,98.00
2019-03-29T05:53:09.153Z,97.90
2019-03-29T05:55:41.427Z,97.90
2019-03-29T05:58:12.698Z,97.80
2019-03-29T06:00:44.083Z,98.30
2019-03-29T06:03:15.336Z,99.00
2019-03-29T06:05:46.755Z,98.80
2019-03-29T06:08:17.925Z,98.50
2019-03-29T06:10:49.843Z,98.60
2019-03-29T06:13:21.194Z,98.50
2019-03-29T06:15:52.522Z,98.40
2019-03-29T06:18:23.702Z,98.80
2019-03-29T06:20:55.049Z,98.70
2019-03-29T06:23:26.299Z,98.70
2019-03-29T06:25:57.506Z,99.00
2019-03-29T06:28:30.139Z,98.90
2019-03-29T06:31:01.452Z,98.70
2019-03-29T06:33:32.693Z,98.70
2019-03-29T06:36:04.111Z,98.80
2019-03-29T06:38:35.389Z,98.80
2019-03-29T06:41:06.719Z,98.50
2019-03-29T06:43:37.986Z,98.40
2019-03-29T06:46:09.292Z,98.30
2019-03-29T06:48:40.500Z,98.40
2019-03-29T06:51:12.000Z,98.40
2019-03-29T06:53:43.215Z,98.20
2019-03-29T06:56:14.777Z,98.20
2019-03-29T06:58:46.090Z,98.00
2019-03-29T07:01:17.277Z,98.20
2019-03-29T07:03:48.477Z,98.30
2019-03-29T07:06:19.782Z,98.20
2019-03-29T07:08:51.056Z,97.90
2019-03-29T07:11:22.764Z,98.00
2019-03-29T07:13:57.860Z,97.90
2019-03-29T07:16:27.141Z,98.30
2019-03-29T07:18:58.196Z,98.20
2019-03-29T07:21:29.504Z,97.90
2019-03-29T07:24:00.716Z,97.80
2019-03-29T07:26:32.101Z,97.90
2019-03-29T07:29:03.432Z,97.60
2019-03-29T07:31:34.803Z,97.90
2019-03-29T07:34:06.116Z,98.30
2019-03-29T07:36:37.614Z,98.00
2019-03-29T07:39:08.915Z,97.50
2019-03-29T07:41:40.210Z,97.50
2019-03-29T07:44:11.577Z,97.20
2019-03-29T07:46:42.972Z,97.50
2019-03-29T07:49:14.373Z,97.30
2019-03-29T07:51:45.801Z,97.30
2019-03-29T07:54:18.093Z,97.50
2019-03-29T07:56:49.392Z,97.60
2019-03-29T07:59:20.565Z,97.40
2019-03-29T08:01:51.768Z,97.20
2019-03-29T08:04:23.896Z,97.10
2019-03-29T08:06:55.763Z,97.50
2019-03-29T08:09:27.421Z,97.40
2019-03-29T08:11:59.328Z,96.80
2019-03-29T08:14:30.629Z,97.10
2019-03-29T08:17:02.027Z,97.20
2019-03-29T08:19:33.220Z,96.60
2019-03-29T08:22:04.537Z,96.70
2019-03-29T08:24:35.813Z,96.70
2019-03-29T08:27:07.212Z,96.80
2019-03-29T08:29:38.634Z,96.80
2019-03-29T08:32:10.000Z,96.10
2019-03-29T08:34:41.323Z,96.10
2019-03-29T08:37:12.635Z,95.60
2019-03-29T08:39:43.812Z,95.80
2019-03-29T08:42:18.377Z,96.10
2019-03-29T08:44:48.048Z,95.50
2019-03-29T08:47:20.496Z,95.40
2019-03-29T08:49:51.828Z,95.80
2019-03-29T08:52:23.177Z,95.40
2019-03-29T08:54:54.260Z,94.60
2019-03-29T08:57:26.653Z,94.40
2019-03-29T08:59:58.875Z,95.30
2019-03-29T09:02:30.278Z,94.80
2019-03-29T09:05:01.457Z,94.90
2019-03-29T09:07:44.058Z,94.90
2019-03-29T09:10:10.685Z,95.20
2019-03-29T09:12:42.142Z,94.50
2019-03-29T09:15:13.411Z,94.10
2019-03-29T09:17:45.836Z,93.90
2019-03-29T09:20:17.099Z,93.50
2019-03-29T09:22:48.638Z,94.10
2019-03-29T09:25:21.182Z,94.40
2019-03-29T09:27:52.661Z,93.90
2019-03-29T09:30:23.760Z,93.20
2019-03-29T09:32:55.455Z,93.60
2019-03-29T09:35:26.772Z,93.30
2019-03-29T09:37:58.069Z,92.90
2019-03-29T09:40:29.231Z,92.90
2019-03-29T09:43:08.979Z,93.00
2019-03-29T09:45:34.614Z,93.50
2019-03-29T09:48:05.992Z,93.10
2019-03-29T09:50:37.201Z,92.30
2019-03-29T09:53:08.628Z,92.70
2019-03-29T09:55:39.914Z,91.80
2019-03-29T09:58:11.153Z,92.00
2019-03-29T10:00:42.613Z,90.70
2019-03-29T10:03:14.002Z,91.20
2019-03-29T10:05:46.232Z,91.40
2019-03-29T10:08:17.711Z,91.00
2019-03-29T10:10:48.880Z,90.70
2019-03-29T10:13:20.207Z,90.20
2019-03-29T10:15:51.631Z,90.70
2019-03-29T10:18:23.003Z,91.00
2019-03-29T10:20:54.301Z,90.80
2019-03-29T10:23:25.671Z,90.00
2019-03-29T10:25:58.768Z,90.10
2019-03-29T10:28:31.362Z,89.50
2019-03-29T10:31:02.538Z,91.10
2019-03-29T10:33:33.887Z,90.20
2019-03-29T10:36:05.235Z,90.90
2019-03-29T10:38:36.520Z,90.30
2019-03-29T10:41:07.811Z,90.00
2019-03-29T10:43:39.361Z,88.60
2019-03-29T10:46:10.643Z,90.70
2019-03-29T10:48:42.314Z,90.40
2019-03-29T10:51:13.539Z,89.10
2019-03-29T10:53:44.849Z,90.80
2019-03-29T10:56:16.107Z,88.60
2019-03-29T10:58:47.452Z,87.60
2019-03-29T11:01:18.788Z,88.80
2019-03-29T11:03:50.115Z,89.20
2019-03-29T11:06:21.302Z,90.10
2019-03-29T11:08:52.637Z,86.90
2019-03-29T11:11:23.883Z,86.70
2019-03-29T11:13:56.917Z,86.50
2019-03-29T11:16:28.380Z,85.90
2019-03-29T11:18:59.726Z,83.80
2019-03-29T11:21:30.852Z,85.40
2019-03-29T11:24:02.254Z,86.40
2019-03-29T11:26:33.516Z,88.50
2019-03-29T11:29:04.893Z,85.90
2019-03-29T11:31:36.247Z,86.60
2019-03-29T11:34:07.641Z,85.20
2019-03-29T11:36:38.910Z,87.30
2019-03-29T11:39:10.194Z,86.10
2019-03-29T11:41:41.487Z,85.90
2019-03-29T11:44:12.787Z,88.20
2019-03-29T11:46:44.302Z,85.70
2019-03-29T11:49:15.730Z,87.70
2019-03-29T11:51:46.979Z,85.50
2019-03-29T11:54:18.195Z,86.80
2019-03-29T11:56:49.361Z,85.40
2019-03-29T11:59:20.788Z,86.50
2019-03-29T12:01:52.209Z,85.00
2019-03-29T12:04:24.641Z,86.70
2019-03-29T12:06:56.083Z,83.10
2019-03-29T12:09:27.476Z,85.80
2019-03-29T12:11:58.868Z,84.80
2019-03-29T12:14:30.484Z,85.50
2019-03-29T12:17:01.686Z,84.40
2019-03-29T12:19:33.306Z,82.90
2019-03-29T12:22:04.768Z,82.60
2019-03-29T12:24:36.487Z,83.10
2019-03-29T12:27:57.125Z,84.30
2019-03-29T12:30:31.874Z,85.90
2019-03-29T12:33:01.782Z,84.60
2019-03-29T12:35:33.273Z,82.40
2019-03-29T12:38:04.694Z,83.70
2019-03-29T12:40:36.165Z,82.30
2019-03-29T12:43:07.378Z,83.90
2019-03-29T12:45:38.773Z,82.30
2019-03-29T12:48:10.104Z,84.30
2019-03-29T12:50:41.643Z,80.70
2019-03-29T12:53:13.052Z,80.40
2019-03-29T12:55:44.584Z,79.10
2019-03-29T12:58:15.936Z,80.50
2019-03-29T13:00:47.645Z,77.70
2019-03-29T13:03:19.200Z,79.30
2019-03-29T13:05:50.857Z,79.50
2019-03-29T13:08:22.503Z,80.10
2019-03-29T13:10:54.669Z,77.70
2019-03-29T13:13:26.375Z,82.00
2019-03-29T13:15:58.214Z,81.10
2019-03-29T13:18:30.018Z,80.90
2019-03-29T13:21:01.786Z,79.60
2019-03-29T13:23:33.346Z,78.60
2019-03-29T13:26:04.792Z,80.70
2019-03-29T13:28:37.359Z,76.50
2019-03-29T13:31:08.724Z,77.10
2019-03-29T13:33:40.174Z,76.70
2019-03-29T13:36:13.270Z,77.30
2019-03-29T13:38:45.718Z,78.60
2019-03-29T13:41:19.029Z,79.00
2019-03-29T13:43:50.457Z,79.20
2019-03-29T13:46:22.078Z,76.90
2019-03-29T13:48:53.485Z,79.00
2019-03-29T13:51:24.858Z,78.70
2019-03-29T13:53:56.160Z,78.70
2019-03-29T13:56:27.570Z,79.30
2019-03-29T13:58:58.985Z,77.00
2019-03-29T14:01:30.470Z,75.80
2019-03-29T14:04:01.885Z,75.50
2019-03-29T14:06:33.360Z,75.30
2019-03-29T14:09:05.783Z,76.10
2019-03-29T14:11:37.245Z,77.70
2019-03-29T14:14:08.718Z,78.00
2019-03-29T14:16:40.093Z,74.00
2019-03-29T14:19:11.484Z,76.60
2019-03-29T14:21:42.964Z,78.10
2019-03-29T14:24:14.408Z,78.00
2019-03-29T14:26:45.759Z,77.90
2019-03-29T14:29:17.169Z,76.60
2019-03-29T14:31:48.794Z,75.90
2019-03-29T14:34:20.272Z,77.40
2019-03-29T14:36:51.908Z,75.80
2019-03-29T14:39:23.451Z,76.50
2019-03-29T14:41:54.993Z,76.90
2019-03-29T14:44:26.497Z,77.70
2019-03-29T14:46:58.092Z,79.10
2019-03-29T14:49:29.661Z,76.30
2019-03-29T14:52:01.339Z,79.10
2019-03-29T14:54:33.334Z,75.10
2019-03-29T14:57:05.603Z,75.60
2019-03-29T14:59:37.207Z,75.10
2019-03-29T15:02:08.761Z,76.70
2019-03-29T15:04:40.307Z,75.40
2019-03-29T15:07:11.849Z,77.90
2019-03-29T15:09:43.412Z,73.90
2019-03-29T15:12:14.704Z,77.50
2019-03-29T15:14:46.056Z,75.70
2019-03-29T15:17:17.401Z,77.10
2019-03-29T15:19:48.583Z,76.70
2019-03-29T15:22:19.819Z,79.60
2019-03-29T15:24:51.331Z,78.70
2019-03-29T15:27:22.546Z,79.50
2019-03-29T15:29:54.017Z,80.30
2019-03-29T15:32:25.382Z,77.00
2019-03-29T15:34:56.686Z,81.20
2019-03-29T15:37:28.417Z,78.50
2019-03-29T15:39:59.775Z,77.50
2019-03-29T15:42:30.947Z,79.50
2019-03-29T15:45:02.250Z,80.20
2019-03-29T15:47:33.754Z,81.30
2019-03-29T15:50:05.016Z,80.00
2019-03-29T15:52:36.497Z,79.70
2019-03-29T15:55:07.723Z,80.20
2019-03-29T15:57:38.862Z,78.00
2019-03-29T16:00:10.165Z,81.70
2019-03-29T16:02:41.512Z,76.40
2019-03-29T16:05:12.779Z,79.10
2019-03-29T16:07:44.104Z,77.20
2019-03-29T16:10:15.519Z,79.60
2019-03-29T16:12:47.735Z,78.50
2019-03-29T16:15:23.524Z,79.20
2019-03-29T16:17:52.039Z,79.00
2019-03-29T16:20:23.519Z,79.80
2019-03-29T16:22:54.704Z,80.40
2019-03-29T16:25:25.956Z,80.00
2019-03-29T16:27:57.260Z,80.00
2019-03-29T16:30:28.521Z,79.00
2019-03-29T16:32:59.695Z,79.40
2019-03-29T16:35:30.871Z,78.10
2019-03-29T16:38:01.993Z,79.60
2019-03-29T16:40:33.289Z,80.00
2019-03-29T16:43:04.603Z,79.80
2019-03-29T16:45:47.337Z,80.80
2019-03-29T16:48:09.845Z,79.60
2019-03-29T16:50:41.264Z,79.00
2019-03-29T16:53:13.560Z,80.80
2019-03-29T16:55:45.153Z,80.00
2019-03-29T16:58:16.464Z,80.20
2019-03-29T17:00:47.654Z,81.70
2019-03-29T17:03:18.938Z,81.60
2019-03-29T17:05:50.337Z,81.10
2019-03-29T17:08:21.464Z,82.80
2019-03-29T17:10:52.656Z,83.20
2019-03-29T17:13:24.019Z,83.20
2019-03-29T17:16:01.585Z,83.70
2019-03-29T17:18:29.527Z,84.50
2019-03-29T17:21:01.129Z,83.80
2019-03-29T17:23:32.572Z,82.50
2019-03-29T17:26:04.188Z,83.40
2019-03-29T17:28:35.503Z,83.60
2019-03-29T17:31:07.539Z,84.20
2019-03-29T17:33:38.809Z,83.90
2019-03-29T17:36:10.087Z,84.20
2019-03-29T17:38:41.296Z,84.00
2019-03-29T17:41:12.695Z,83.50
2019-03-29T17:43:43.982Z,84.00
2019-03-29T17:46:16.860Z,84.70
2019-03-29T17:48:48.444Z,84.80
2019-03-29T17:51:22.700Z,84.30
2019-03-29T17:53:54.108Z,85.20
2019-03-29T17:56:25.495Z,85.60
2019-03-29T17:58:56.767Z,85.70
2019-03-29T18:01:29.683Z,86.00
2019-03-29T18:04:01.038Z,86.40
2019-03-29T18:06:32.517Z,86.60
2019-03-29T18:09:04.702Z,87.00
2019-03-29T18:11:36.267Z,87.20
2019-03-29T18:14:07.739Z,87.60
2019-03-29T18:16:39.068Z,87.90
2019-03-29T18:19:10.348Z,88.00
2019-03-29T18:21:41.646Z,88.30
2019-03-29T18:24:12.944Z,88.10
2019-03-29T18:26:44.337Z,88.60
2019-03-29T18:29:15.808Z,88.90
2019-03-29T18:31:47.164Z,88.90
2019-03-29T18:34:18.515Z,88.90
2019-03-29T18:36:49.733Z,89.40
2019-03-29T18:39:21.018Z,89.30
2019-03-29T18:41:52.343Z,89.30
2019-03-29T18:44:23.623Z,89.50
2019-03-29T18:46:54.940Z,89.70
2019-03-29T18:49:26.215Z,90.10
2019-03-29T18:51:57.803Z,90.10
2019-03-29T18:54:29.020Z,90.30
2019-03-29T18:57:00.413Z,90.10
2019-03-29T18:59:31.701Z,90.10
2019-03-29T19:02:02.997Z,90.50
2019-03-29T19:04:34.212Z,90.50
2019-03-29T19:07:05.607Z,90.50
2019-03-29T19:09:36.878Z,90.60
2019-03-29T19:12:08.115Z,90.90
2019-03-29T19:14:41.637Z,90.80
2019-03-29T19:17:12.528Z,91.10
2019-03-29T19:19:43.803Z,91.20
2019-03-29T19:22:15.194Z,91.30
2019-03-29T19:24:46.500Z,91.30
2019-03-29T19:27:17.719Z,91.30
2019-03-29T19:29:48.904Z,91.40
2019-03-29T19:32:20.372Z,91.80
2019-03-29T19:34:51.601Z,91.50
2019-03-29T19:37:22.870Z,91.70
2019-03-29T19:39:54.176Z,92.20
2019-03-29T19:42:25.380Z,92.10
2019-03-29T19:44:56.590Z,91.90
2019-03-29T19:47:28.001Z,91.90
2019-03-29T19:49:59.186Z,92.00
2019-03-29T19:52:30.528Z,92.20
2019-03-29T19:55:02.068Z,92.30
2019-03-29T19:57:33.385Z,92.10
2019-03-29T20:00:06.324Z,92.50
2019-03-29T20:02:38.030Z,92.50
2019-03-29T20:05:16.644Z,92.80
2019-03-29T20:07:47.951Z,92.90
2019-03-29T20:10:19.091Z,92.90
2019-03-29T20:12:50.566Z,92.60
2019-03-29T20:15:21.767Z,92.80
2019-03-29T20:17:53.036Z,93.20
2019-03-29T20:20:25.050Z,93.20
2019-03-29T20:22:56.680Z,93.00
2019-03-29T20:25:27.943Z,92.80
2019-03-29T20:27:59.642Z,93.30
2019-03-29T20:30:30.871Z,93.00
2019-03-29T20:33:02.377Z,93.30
2019-03-29T20:35:33.741Z,93.40
2019-03-29T20:38:05.164Z,93.40
2019-03-29T20:40:36.564Z,93.30
2019-03-29T20:43:07.970Z,93.60
2019-03-29T20:45:39.140Z,93.90
2019-03-29T20:48:10.478Z,93.60
2019-03-29T20:50:41.740Z,93.90
2019-03-29T20:53:13.157Z,94.30
2019-03-29T20:55:44.338Z,94.10
2019-03-29T20:58:15.659Z,94.70
2019-03-29T21:00:46.965Z,94.60
2019-03-29T21:03:18.428Z,94.50
2019-03-29T21:05:49.736Z,93.90
2019-03-29T21:08:21.058Z,94.50
2019-03-29T21:10:56.275Z,94.80
2019-03-29T21:13:25.276Z,94.40
2019-03-29T21:15:56.447Z,94.30
2019-03-29T21:18:27.855Z,95.00
2019-03-29T21:20:59.087Z,95.70
2019-03-29T21:23:30.349Z,95.50
2019-03-29T21:26:01.785Z,95.80
2019-03-29T21:28:35.034Z,95.40
2019-03-29T21:31:06.284Z,95.70
2019-03-29T21:33:40.588Z,95.30
2019-03-29T21:37:56.899Z,95.90
2019-03-29T21:40:28.185Z,95.30
2019-03-29T21:43:01.743Z,95.80
2019-03-29T21:45:32.313Z,95.40
2019-03-29T21:48:26.899Z,95.40
2019-03-29T21:50:36.667Z,94.90
2019-03-29T21:53:07.864Z,95.00
2019-03-29T21:55:39.243Z,94.70
2019-03-29T21:58:10.564Z,94.50
2019-03-29T22:00:41.856Z,94.70
2019-03-29T22:03:13.156Z,95.00
2019-03-29T22:05:44.468Z,94.50
2019-03-29T22:08:17.932Z,94.20
2019-03-29T22:10:49.008Z,94.50
2019-03-29T22:13:20.274Z,94.60
2019-03-29T22:15:51.600Z,94.60
2019-03-29T22:18:22.770Z,94.40
2019-03-29T22:20:54.165Z,94.20
2019-03-29T22:23:25.368Z,94.30
2019-03-29T22:25:56.751Z,94.40
2019-03-29T22:28:28.960Z,94.00
2019-03-29T22:31:00.258Z,94.10
2019-03-29T22:33:32.609Z,94.80
2019-03-29T22:36:03.907Z,95.40
2019-03-29T22:38:35.371Z,95.40
2019-03-29T22:41:06.679Z,95.50
2019-03-29T22:43:37.868Z,95.90
2019-03-29T22:46:11.119Z,96.30
2019-03-29T22:48:51.997Z,96.70
2019-03-29T22:51:15.285Z,96.90
2019-03-29T22:53:46.555Z,96.80
2019-03-29T22:56:17.875Z,96.90
2019-03-29T22:58:49.144Z,96.90
2019-03-29T23:01:20.617Z,96.70
2019-03-29T23:03:52.039Z,96.60
2019-03-29T23:06:23.252Z,96.60
2019-03-29T23:08:54.467Z,96.50
2019-03-29T23:11:25.824Z,96.30
2019-03-29T23:13:57.235Z,96.20
2019-03-29T23:16:30.387Z,96.50
2019-03-29T23:19:06.725Z,96.60
2019-03-29T23:21:34.609Z,96.80
2019-03-29T23:24:05.639Z,96.80
2019-03-29T23:26:36.921Z,96.50
2019-03-29T23:29:08.354Z,96.50
2019-03-29T23:31:39.725Z,96.50
2019-03-29T23:34:12.073Z,96.70
2019-03-29T23:36:43.373Z,96.00
2019-03-29T23:39:14.643Z,95.60
2019-03-29T23:41:45.847Z,95.30
2019-03-29T23:44:17.159Z,94.90
2019-03-29T23:46:48.618Z,95.10
2019-03-29T23:49:21.616Z,95.60
2019-03-29T23:51:53.290Z,94.80
2019-03-29T23:54:24.705Z,95.20
2019-03-29T23:56:55.892Z,95.60
2019-03-29T23:59:27.201Z,95.30
